sensor_id;sensor_type;location;lat;lon;timestamp;pressure;altitude;pressure_sealevel;temperature;humidity
28797;BME280;24974;54.444;18.560;2023-08-31T11:00:52;100315.59;;;26.21;41.15
28797;BME280;24974;54.444;18.560;2023-08-31T11:03:23;100304.31;;;25.94;42.40
28797;BME280;24974;54.444;18.560;2023-08-31T11:05:54;100308.09;;;25.84;40.76
28797;BME280;24974;54.444;18.560;2023-08-31T11:08:25;100302.19;;;26.02;41.10
28797;BME280;24974;54.444;18.560;2023-08-31T11:10:56;100306.53;;;24.67;43.07
28797;BME280;24974;54.444;18.560;2023-08-31T11:13:27;100298.81;;;25.53;41.81
28797;BME280;24974;54.444;18.560;2023-08-31T11:15:58;100294.28;;;24.43;43.99
28797;BME280;24974;54.444;18.560;2023-08-31T11:18:29;100291.56;;;26.13;41.39
28797;BME280;24974;54.444;18.560;2023-08-31T11:21:00;100288.28;;;25.91;41.56
28797;BME280;24974;54.444;18.560;2023-08-31T11:23:31;100287.97;;;25.86;41.28
28797;BME280;24974;54.444;18.560;2023-08-31T11:26:02;100286.16;;;24.97;44.13
28797;BME280;24974;54.444;18.560;2023-08-31T11:28:33;100289.84;;;24.45;45.56
28797;BME280;24974;54.444;18.560;2023-08-31T11:31:04;100291.56;;;24.80;43.79
28797;BME280;24974;54.444;18.560;2023-08-31T11:33:35;100293.81;;;24.93;43.35
28797;BME280;24974;54.444;18.560;2023-08-31T11:36:09;100282.81;;;25.47;42.38
28797;BME280;24974;54.444;18.560;2023-08-31T11:38:41;100294.88;;;25.13;42.93
28797;BME280;24974;54.444;18.560;2023-08-31T11:41:12;100294.13;;;24.64;44.05
28797;BME280;24974;54.444;18.560;2023-08-31T11:43:43;100299.53;;;25.27;43.70
28797;BME280;24974;54.444;18.560;2023-08-31T11:46:16;100295.44;;;25.35;43.33
28797;BME280;24974;54.444;18.560;2023-08-31T11:48:47;100295.94;;;25.57;42.52
28797;BME280;24974;54.444;18.560;2023-08-31T11:51:18;100297.13;;;26.47;41.14
28797;BME280;24974;54.444;18.560;2023-08-31T11:53:49;100292.63;;;26.97;38.62
28797;BME280;24974;54.444;18.560;2023-08-31T11:56:20;100294.53;;;25.42;41.58
28797;BME280;24974;54.444;18.560;2023-08-31T11:58:51;100294.28;;;24.88;43.37
28797;BME280;24974;54.444;18.560;2023-08-31T12:01:22;100292.97;;;25.03;42.17
28797;BME280;24974;54.444;18.560;2023-08-31T12:03:54;100312.09;;;25.15;41.95
28797;BME280;24974;54.444;18.560;2023-08-31T12:06:24;100286.03;;;26.33;39.34
28797;BME280;24974;54.444;18.560;2023-08-31T12:08:55;100288.97;;;25.69;40.84
28797;BME280;24974;54.444;18.560;2023-08-31T12:11:26;100293.66;;;24.69;42.26
28797;BME280;24974;54.444;18.560;2023-08-31T12:14:17;100283.66;;;26.32;39.63
28797;BME280;24974;54.444;18.560;2023-08-31T12:16:48;100277.28;;;25.05;41.89
28797;BME280;24974;54.444;18.560;2023-08-31T12:19:20;100275.75;;;26.23;39.97
28797;BME280;24974;54.444;18.560;2023-08-31T12:21:50;100271.66;;;26.98;38.57
28797;BME280;24974;54.444;18.560;2023-08-31T12:24:21;100276.38;;;26.34;40.10
28797;BME280;24974;54.444;18.560;2023-08-31T12:26:53;100275.75;;;27.37;38.64
28797;BME280;24974;54.444;18.560;2023-08-31T12:29:24;100285.50;;;29.35;34.55
28797;BME280;24974;54.444;18.560;2023-08-31T12:31:55;100286.50;;;29.57;34.36
28797;BME280;24974;54.444;18.560;2023-08-31T12:34:26;100283.97;;;28.72;35.86
28797;BME280;24974;54.444;18.560;2023-08-31T12:36:57;100277.38;;;26.71;38.29
28797;BME280;24974;54.444;18.560;2023-08-31T12:39:32;100279.50;;;25.86;40.04
28797;BME280;24974;54.444;18.560;2023-08-31T12:42:03;100281.81;;;26.72;39.35
28797;BME280;24974;54.444;18.560;2023-08-31T12:44:35;100281.47;;;25.24;42.62
28797;BME280;24974;54.444;18.560;2023-08-31T12:47:05;100284.66;;;25.60;41.47
28797;BME280;24974;54.444;18.560;2023-08-31T12:49:36;100283.03;;;25.29;42.08
28797;BME280;24974;54.444;18.560;2023-08-31T12:52:07;100285.06;;;25.25;42.61
28797;BME280;24974;54.444;18.560;2023-08-31T12:54:38;100295.97;;;24.78;43.69
28797;BME280;24974;54.444;18.560;2023-08-31T12:57:08;100286.00;;;23.41;46.83
28797;BME280;24974;54.444;18.560;2023-08-31T12:59:39;100300.78;;;23.63;47.21
28797;BME280;24974;54.444;18.560;2023-08-31T13:02:10;100308.56;;;22.63;48.37
28797;BME280;24974;54.444;18.560;2023-08-31T13:04:42;100314.97;;;22.88;47.39
28797;BME280;24974;54.444;18.560;2023-08-31T13:07:13;100314.16;;;22.48;47.80
28797;BME280;24974;54.444;18.560;2023-08-31T13:09:44;100301.34;;;22.37;48.22
28797;BME280;24974;54.444;18.560;2023-08-31T13:12:14;100319.25;;;21.93;48.94
28797;BME280;24974;54.444;18.560;2023-08-31T13:14:45;100327.44;;;21.43;49.03
28797;BME280;24974;54.444;18.560;2023-08-31T13:17:16;100333.97;;;21.06;50.44
28797;BME280;24974;54.444;18.560;2023-08-31T13:19:47;100327.81;;;20.79;51.96
28797;BME280;24974;54.444;18.560;2023-08-31T13:22:18;100323.03;;;20.80;53.38
28797;BME280;24974;54.444;18.560;2023-08-31T13:24:49;100325.69;;;19.54;59.00
28797;BME280;24974;54.444;18.560;2023-08-31T13:27:20;100342.38;;;19.24;61.60
28797;BME280;24974;54.444;18.560;2023-08-31T13:29:51;100339.16;;;18.04;66.81
28797;BME280;24974;54.444;18.560;2023-08-31T13:32:22;100335.59;;;18.45;66.81
28797;BME280;24974;54.444;18.560;2023-08-31T13:34:53;100342.31;;;18.22;69.09
28797;BME280;24974;54.444;18.560;2023-08-31T13:37:24;100357.50;;;18.51;67.80
28797;BME280;24974;54.444;18.560;2023-08-31T13:39:55;100350.97;;;18.39;68.85
28797;BME280;24974;54.444;18.560;2023-08-31T13:42:32;100355.50;;;17.86;72.10
28797;BME280;24974;54.444;18.560;2023-08-31T13:45:07;100358.56;;;17.61;73.75
28797;BME280;24974;54.444;18.560;2023-08-31T13:47:38;100375.09;;;18.12;72.17
28797;BME280;24974;54.444;18.560;2023-08-31T13:50:09;100380.69;;;17.39;75.20
28797;BME280;24974;54.444;18.560;2023-08-31T13:52:39;100401.38;;;17.76;73.61
28797;BME280;24974;54.444;18.560;2023-08-31T13:55:11;100396.91;;;17.37;73.38
28797;BME280;24974;54.444;18.560;2023-08-31T13:57:42;100396.09;;;17.36;73.21
28797;BME280;24974;54.444;18.560;2023-08-31T14:00:13;100401.03;;;17.62;72.30
28797;BME280;24974;54.444;18.560;2023-08-31T14:02:44;100410.16;;;17.78;70.76
28797;BME280;24974;54.444;18.560;2023-08-31T14:05:15;100403.75;;;17.58;71.90
28797;BME280;24974;54.444;18.560;2023-08-31T14:07:46;100400.00;;;17.51;71.79
28797;BME280;24974;54.444;18.560;2023-08-31T14:10:17;100396.28;;;17.62;72.31
28797;BME280;24974;54.444;18.560;2023-08-31T14:12:48;100403.06;;;17.46;73.09
28797;BME280;24974;54.444;18.560;2023-08-31T14:15:19;100403.13;;;17.84;72.53
28797;BME280;24974;54.444;18.560;2023-08-31T14:17:50;100401.00;;;18.16;71.94
28797;BME280;24974;54.444;18.560;2023-08-31T14:20:22;100394.69;;;17.61;73.35
28797;BME280;24974;54.444;18.560;2023-08-31T14:22:53;100396.00;;;18.45;71.05
28797;BME280;24974;54.444;18.560;2023-08-31T14:25:23;100409.56;;;18.69;70.53
28797;BME280;24974;54.444;18.560;2023-08-31T14:27:56;100411.03;;;18.21;70.49
28797;BME280;24974;54.444;18.560;2023-08-31T14:30:30;100414.53;;;18.37;70.61
28797;BME280;24974;54.444;18.560;2023-08-31T14:33:00;100422.75;;;17.92;71.42
28797;BME280;24974;54.444;18.560;2023-08-31T14:35:31;100422.31;;;18.09;71.72
28797;BME280;24974;54.444;18.560;2023-08-31T14:38:02;100421.06;;;18.06;71.47
28797;BME280;24974;54.444;18.560;2023-08-31T14:40:34;100433.94;;;17.95;72.05
28797;BME280;24974;54.444;18.560;2023-08-31T14:43:05;100424.69;;;17.72;73.55
28797;BME280;24974;54.444;18.560;2023-08-31T14:45:36;100424.22;;;18.05;72.83
28797;BME280;24974;54.444;18.560;2023-08-31T14:48:08;100418.63;;;18.24;72.56
28797;BME280;24974;54.444;18.560;2023-08-31T14:50:45;100414.72;;;18.06;73.46
28797;BME280;24974;54.444;18.560;2023-08-31T14:53:16;100406.19;;;18.60;71.56
28797;BME280;24974;54.444;18.560;2023-08-31T14:55:50;100399.94;;;19.66;69.01
28797;BME280;24974;54.444;18.560;2023-08-31T14:58:21;100397.47;;;19.61;69.20
28797;BME280;24974;54.444;18.560;2023-08-31T15:00:55;100387.63;;;20.00;67.60
28797;BME280;24974;54.444;18.560;2023-08-31T15:03:27;100387.84;;;19.28;68.76
28797;BME280;24974;54.444;18.560;2023-08-31T15:05:57;100396.41;;;19.42;68.83
28797;BME280;24974;54.444;18.560;2023-08-31T15:08:37;100390.09;;;19.19;68.86
28797;BME280;24974;54.444;18.560;2023-08-31T15:11:09;100390.44;;;20.37;66.06
28797;BME280;24974;54.444;18.560;2023-08-31T15:13:40;100393.13;;;20.67;64.31
28797;BME280;24974;54.444;18.560;2023-08-31T15:16:10;100402.09;;;20.91;63.38
28797;BME280;24974;54.444;18.560;2023-08-31T15:18:41;100398.34;;;21.20;63.69
28797;BME280;24974;54.444;18.560;2023-08-31T15:21:12;100399.09;;;20.62;64.48
28797;BME280;24974;54.444;18.560;2023-08-31T15:23:44;100406.16;;;21.01;63.38
28797;BME280;24974;54.444;18.560;2023-08-31T15:26:15;100401.72;;;21.44;63.56
28797;BME280;24974;54.444;18.560;2023-08-31T15:28:48;100414.41;;;21.31;63.15
28797;BME280;24974;54.444;18.560;2023-08-31T15:31:19;100424.16;;;21.51;63.28
28797;BME280;24974;54.444;18.560;2023-08-31T15:33:49;100431.59;;;20.44;66.87
28797;BME280;24974;54.444;18.560;2023-08-31T15:36:20;100434.97;;;21.05;65.05
28797;BME280;24974;54.444;18.560;2023-08-31T15:38:51;100435.91;;;20.42;66.59
28797;BME280;24974;54.444;18.560;2023-08-31T15:41:22;100431.13;;;21.89;62.94
28797;BME280;24974;54.444;18.560;2023-08-31T15:43:53;100427.53;;;21.89;62.15
28797;BME280;24974;54.444;18.560;2023-08-31T15:46:23;100425.09;;;21.76;62.47
28797;BME280;24974;54.444;18.560;2023-08-31T15:48:54;100425.75;;;21.56;61.99
28797;BME280;24974;54.444;18.560;2023-08-31T15:51:25;100429.78;;;22.49;60.28
28797;BME280;24974;54.444;18.560;2023-08-31T15:53:56;100433.03;;;22.83;59.44
28797;BME280;24974;54.444;18.560;2023-08-31T15:56:27;100431.84;;;21.68;61.51
28797;BME280;24974;54.444;18.560;2023-08-31T15:58:58;100430.66;;;23.17;57.23
28797;BME280;24974;54.444;18.560;2023-08-31T16:01:28;100432.19;;;22.47;58.74
28797;BME280;24974;54.444;18.560;2023-08-31T16:04:00;100429.47;;;23.18;58.08
28797;BME280;24974;54.444;18.560;2023-08-31T16:06:31;100430.59;;;22.67;59.57
28797;BME280;24974;54.444;18.560;2023-08-31T16:09:06;100436.78;;;21.31;62.50
28797;BME280;24974;54.444;18.560;2023-08-31T16:11:38;100433.97;;;21.31;62.05
28797;BME280;24974;54.444;18.560;2023-08-31T16:14:09;100440.28;;;21.24;63.91
28797;BME280;24974;54.444;18.560;2023-08-31T16:16:39;100435.31;;;20.55;66.24
28797;BME280;24974;54.444;18.560;2023-08-31T16:19:12;100447.75;;;20.61;65.21
28797;BME280;24974;54.444;18.560;2023-08-31T16:21:43;100442.59;;;20.33;67.63
28797;BME280;24974;54.444;18.560;2023-08-31T16:24:14;100448.69;;;19.52;69.91
28797;BME280;24974;54.444;18.560;2023-08-31T16:26:45;100446.72;;;19.53;69.12
28797;BME280;24974;54.444;18.560;2023-08-31T16:29:16;100449.97;;;19.32;71.19
28797;BME280;24974;54.444;18.560;2023-08-31T16:31:47;100443.88;;;19.49;69.30
28797;BME280;24974;54.444;18.560;2023-08-31T16:34:18;100437.75;;;20.27;67.35
28797;BME280;24974;54.444;18.560;2023-08-31T16:36:49;100444.00;;;19.83;67.87
28797;BME280;24974;54.444;18.560;2023-08-31T16:41:51;100446.53;;;19.65;68.76
28797;BME280;24974;54.444;18.560;2023-08-31T16:44:22;100451.06;;;20.07;67.66
28797;BME280;24974;54.444;18.560;2023-08-31T16:46:53;100448.59;;;19.72;68.79
28797;BME280;24974;54.444;18.560;2023-08-31T16:49:23;100442.88;;;19.35;69.45
28797;BME280;24974;54.444;18.560;2023-08-31T16:51:54;100442.13;;;19.64;69.36
28797;BME280;24974;54.444;18.560;2023-08-31T16:54:25;100454.31;;;19.29;70.55
28797;BME280;24974;54.444;18.560;2023-08-31T16:56:56;100457.81;;;19.49;68.87
28797;BME280;24974;54.444;18.560;2023-08-31T16:59:27;100466.41;;;18.68;71.10
28797;BME280;24974;54.444;18.560;2023-08-31T17:01:58;100469.94;;;18.65;71.29
28797;BME280;24974;54.444;18.560;2023-08-31T17:04:29;100465.75;;;17.62;70.27
28797;BME280;24974;54.444;18.560;2023-08-31T17:07:00;100461.28;;;18.70;69.23
28797;BME280;24974;54.444;18.560;2023-08-31T17:09:31;100457.88;;;19.04;66.27
28797;BME280;24974;54.444;18.560;2023-08-31T17:12:02;100466.88;;;18.32;68.77
28797;BME280;24974;54.444;18.560;2023-08-31T17:14:33;100474.50;;;18.15;68.20
28797;BME280;24974;54.444;18.560;2023-08-31T17:17:03;100476.16;;;18.20;67.49
28797;BME280;24974;54.444;18.560;2023-08-31T17:19:34;100470.16;;;17.99;67.80
28797;BME280;24974;54.444;18.560;2023-08-31T17:22:05;100468.09;;;17.10;71.15
28797;BME280;24974;54.444;18.560;2023-08-31T17:24:36;100456.16;;;17.41;70.22
28797;BME280;24974;54.444;18.560;2023-08-31T17:27:07;100447.47;;;17.11;70.98
28797;BME280;24974;54.444;18.560;2023-08-31T17:29:38;100440.47;;;17.32;70.99
28797;BME280;24974;54.444;18.560;2023-08-31T17:32:08;100440.50;;;17.17;70.50
28797;BME280;24974;54.444;18.560;2023-08-31T17:34:39;100441.66;;;17.00;71.34
28797;BME280;24974;54.444;18.560;2023-08-31T17:37:10;100450.63;;;17.25;70.58
28797;BME280;24974;54.444;18.560;2023-08-31T17:39:40;100452.81;;;17.51;69.40
28797;BME280;24974;54.444;18.560;2023-08-31T17:42:11;100460.94;;;16.93;70.96
28797;BME280;24974;54.444;18.560;2023-08-31T17:44:42;100461.25;;;16.91;71.71
28797;BME280;24974;54.444;18.560;2023-08-31T17:47:13;100459.81;;;16.82;71.64
28797;BME280;24974;54.444;18.560;2023-08-31T17:49:44;100469.69;;;17.26;70.21
28797;BME280;24974;54.444;18.560;2023-08-31T17:52:16;100479.09;;;16.90;71.04
28797;BME280;24974;54.444;18.560;2023-08-31T17:54:46;100487.09;;;16.64;71.91
28797;BME280;24974;54.444;18.560;2023-08-31T17:57:17;100481.66;;;16.83;71.85
28797;BME280;24974;54.444;18.560;2023-08-31T17:59:48;100494.97;;;16.62;72.18
28797;BME280;24974;54.444;18.560;2023-08-31T18:02:19;100503.25;;;16.74;71.68
28797;BME280;24974;54.444;18.560;2023-08-31T18:04:50;100500.00;;;16.72;71.66
28797;BME280;24974;54.444;18.560;2023-08-31T18:07:20;100496.25;;;16.52;72.38
28797;BME280;24974;54.444;18.560;2023-08-31T18:09:51;100499.63;;;17.33;69.84
28797;BME280;24974;54.444;18.560;2023-08-31T18:12:22;100501.59;;;17.01;70.77
28797;BME280;24974;54.444;18.560;2023-08-31T18:14:53;100508.53;;;16.79;71.57
28797;BME280;24974;54.444;18.560;2023-08-31T18:17:24;100514.59;;;16.41;72.75
28797;BME280;24974;54.444;18.560;2023-08-31T18:19:55;100512.91;;;16.52;71.66
28797;BME280;24974;54.444;18.560;2023-08-31T18:22:26;100518.16;;;16.41;72.42
28797;BME280;24974;54.444;18.560;2023-08-31T18:24:57;100528.84;;;16.27;72.16
28797;BME280;24974;54.444;18.560;2023-08-31T18:27:28;100524.97;;;16.44;71.60
28797;BME280;24974;54.444;18.560;2023-08-31T18:29:59;100520.53;;;16.83;70.45
28797;BME280;24974;54.444;18.560;2023-08-31T18:32:30;100529.25;;;16.97;70.12
28797;BME280;24974;54.444;18.560;2023-08-31T18:35:03;100523.31;;;16.99;69.74
28797;BME280;24974;54.444;18.560;2023-08-31T18:37:35;100527.44;;;16.61;70.59
28797;BME280;24974;54.444;18.560;2023-08-31T18:40:07;100523.03;;;16.72;70.74
28797;BME280;24974;54.444;18.560;2023-08-31T18:42:39;100523.09;;;16.76;71.12
28797;BME280;24974;54.444;18.560;2023-08-31T18:45:10;100528.06;;;16.98;70.10
28797;BME280;24974;54.444;18.560;2023-08-31T18:47:45;100527.00;;;16.87;70.48
28797;BME280;24974;54.444;18.560;2023-08-31T18:50:15;100531.34;;;16.44;71.98
28797;BME280;24974;54.444;18.560;2023-08-31T18:52:50;100528.69;;;16.36;72.14
28797;BME280;24974;54.444;18.560;2023-08-31T18:55:21;100529.22;;;16.82;70.97
28797;BME280;24974;54.444;18.560;2023-08-31T18:57:53;100525.06;;;16.75;71.02
28797;BME280;24974;54.444;18.560;2023-08-31T19:00:24;100531.56;;;16.39;71.39
28797;BME280;24974;54.444;18.560;2023-08-31T19:02:54;100536.75;;;16.41;71.67
28797;BME280;24974;54.444;18.560;2023-08-31T19:05:26;100530.75;;;16.67;70.46
28797;BME280;24974;54.444;18.560;2023-08-31T19:07:57;100533.78;;;16.34;70.95
28797;BME280;24974;54.444;18.560;2023-08-31T19:10:28;100532.78;;;16.82;69.73
28797;BME280;24974;54.444;18.560;2023-08-31T19:12:59;100531.91;;;16.78;69.82
28797;BME280;24974;54.444;18.560;2023-08-31T19:15:37;100540.84;;;16.59;70.50
28797;BME280;24974;54.444;18.560;2023-08-31T19:18:08;100538.75;;;16.28;71.21
28797;BME280;24974;54.444;18.560;2023-08-31T19:20:39;100544.63;;;16.39;71.49
28797;BME280;24974;54.444;18.560;2023-08-31T19:23:10;100532.50;;;16.71;69.75
28797;BME280;24974;54.444;18.560;2023-08-31T19:25:41;100540.16;;;16.62;70.21
28797;BME280;24974;54.444;18.560;2023-08-31T19:28:12;100531.97;;;16.26;71.18
28797;BME280;24974;54.444;18.560;2023-08-31T19:30:42;100531.81;;;16.34;71.41
28797;BME280;24974;54.444;18.560;2023-08-31T19:33:13;100533.16;;;16.53;70.53
28797;BME280;24974;54.444;18.560;2023-08-31T19:35:44;100536.00;;;16.28;71.46
28797;BME280;24974;54.444;18.560;2023-08-31T19:38:15;100542.38;;;16.29;71.32
28797;BME280;24974;54.444;18.560;2023-08-31T19:40:47;100548.91;;;15.84;72.77
